createdAt,value
2023-02-17T00:03:22.870Z,40.36
2023-02-17T00:08:19.085Z,50.699999999999996
2023-02-17T00:13:15.362Z,40.58
2023-02-17T00:18:11.582Z,66.4
2023-02-17T00:23:07.842Z,37.4
2023-02-17T00:28:04.069Z,59
2023-02-17T00:33:00.344Z,37.6
2023-02-17T00:37:56.621Z,51.58
2023-02-17T00:42:52.893Z,46.6
2023-02-17T00:47:49.110Z,52.67999999999999
2023-02-17T00:52:45.411Z,47.72
2023-02-17T00:57:41.665Z,54.160000000000004
2023-02-17T01:02:37.888Z,66.06
2023-02-17T01:07:34.220Z,47.68
2023-02-17T01:12:30.470Z,45.92
2023-02-17T01:17:26.745Z,50.14
2023-02-17T01:22:22.958Z,48.64
2023-02-17T01:27:19.221Z,54.260000000000005
2023-02-17T01:32:15.481Z,41.44
2023-02-17T01:37:11.757Z,42.239999999999995
2023-02-17T01:42:11.990Z,36.68
2023-02-17T01:47:12.281Z,40.92
2023-02-17T01:52:11.470Z,39.2
2023-02-17T01:57:09.716Z,39.68
2023-02-17T02:02:06.119Z,36.32000000000001
2023-02-17T02:07:03.245Z,32.8
2023-02-17T02:11:59.475Z,35.160000000000004
2023-02-17T02:17:02.767Z,38.019999999999996
2023-02-17T02:22:17.927Z,31.04
2023-02-17T02:27:31.154Z,33.3
2023-02-17T02:32:39.413Z,32.839999999999996
2023-02-17T02:37:41.661Z,32.260000000000005
2023-02-17T02:42:39.955Z,35.86
2023-02-17T02:47:42.155Z,34.62
2023-02-17T02:52:48.367Z,32.620000000000005
2023-02-17T02:57:54.644Z,34.3
2023-02-17T03:02:57.863Z,29.02
2023-02-17T03:07:58.094Z,32.78
2023-02-17T03:12:55.352Z,32.32000000000001
2023-02-17T03:17:51.653Z,38.519999999999996
2023-02-17T03:22:50.862Z,33.739999999999995
2023-02-17T03:27:47.136Z,30.560000000000002
2023-02-17T03:32:43.362Z,27.6
2023-02-17T03:37:39.672Z,25.96
2023-02-17T03:42:35.921Z,28.339999999999996
2023-02-17T03:47:32.169Z,30.48
2023-02-17T03:52:28.446Z,25.32
2023-02-17T03:57:24.717Z,23.379999999999995
2023-02-17T04:02:20.966Z,23.76
2023-02-17T04:07:17.195Z,22.840000000000003
2023-02-17T04:12:13.503Z,27.940000000000005
2023-02-17T04:17:09.728Z,24.2
2023-02-17T04:22:05.989Z,25.619999999999997
2023-02-17T04:27:02.264Z,25.26
2023-02-17T04:31:58.618Z,21.939999999999998
2023-02-17T04:36:54.758Z,23.14
2023-02-17T04:41:51.006Z,22.880000000000003
2023-02-17T04:46:47.252Z,25.16
2023-02-17T04:51:43.637Z,22.720000000000002
2023-02-17T04:56:39.802Z,23.68
2023-02-17T05:01:36.146Z,24.299999999999997
2023-02-17T05:06:32.301Z,29.02
2023-02-17T05:11:28.572Z,24.92
2023-02-17T05:16:24.864Z,22.380000000000003
2023-02-17T05:21:21.098Z,21.98
2023-02-17T05:26:17.378Z,24.259999999999998
2023-02-17T05:31:13.662Z,25.2
2023-02-17T05:36:10.854Z,24.28
2023-02-17T05:41:07.107Z,28.72
2023-02-17T05:46:04.673Z,30.639999999999997
2023-02-17T05:51:00.683Z,39.96
2023-02-17T05:55:56.902Z,25.6
2023-02-17T06:00:53.149Z,25.240000000000002
2023-02-17T06:05:49.438Z,32.92
2023-02-17T06:10:45.722Z,35.739999999999995
2023-02-17T06:15:41.921Z,38.779999999999994
2023-02-17T06:20:40.203Z,56.239999999999995
2023-02-17T06:25:36.460Z,32.72
2023-02-17T06:30:32.837Z,28.380000000000003
2023-02-17T06:35:28.953Z,26.24
2023-02-17T06:40:27.504Z,29.939999999999998
2023-02-17T06:45:24.566Z,35.239999999999995
2023-02-17T06:50:20.750Z,37.89999999999999
2023-02-17T06:55:17.019Z,40.36
2023-02-17T07:00:13.299Z,33.64
2023-02-17T07:05:09.552Z,36.32
2023-02-17T07:10:06.810Z,31.82
2023-02-17T07:15:04.064Z,38.64
2023-02-17T07:20:00.320Z,32.58
2023-02-17T07:24:56.571Z,37.42
2023-02-17T07:29:53.801Z,32.440000000000005
2023-02-17T07:34:50.062Z,28.860000000000003
2023-02-17T07:39:46.338Z,30.4
2023-02-17T07:44:42.584Z,45.12
2023-02-17T07:49:38.900Z,33.9
2023-02-17T07:54:34.096Z,32.32
2023-02-17T07:59:30.391Z,35.459999999999994
2023-02-17T08:04:27.666Z,44.239999999999995
2023-02-17T08:09:24.891Z,82.17999999999999
2023-02-17T08:14:21.151Z,42.44
2023-02-17T08:19:17.418Z,26.26
2023-02-17T08:24:13.641Z,24
2023-02-17T08:29:09.931Z,26.3
2023-02-17T08:34:07.198Z,23.779999999999994
2023-02-17T08:39:03.419Z,21.799999999999997
2023-02-17T08:44:01.745Z,23.88
2023-02-17T08:48:57.993Z,21.86
2023-02-17T08:53:55.222Z,23.34
2023-02-17T08:58:51.486Z,22.839999999999996
2023-02-17T09:03:48.767Z,26.28
2023-02-17T09:08:44.995Z,29.419999999999998
2023-02-17T09:13:41.239Z,24.42
2023-02-17T09:18:37.561Z,22.98
2023-02-17T09:23:33.780Z,22.34
2023-02-17T09:28:30.082Z,20.800000000000004
2023-02-17T09:33:27.199Z,17.64
2023-02-17T09:38:23.554Z,25.44
2023-02-17T09:43:22.821Z,19.619999999999997
2023-02-17T09:48:23.127Z,20.2
2023-02-17T09:53:27.287Z,27
2023-02-17T09:58:30.538Z,22.02
2023-02-17T10:03:29.790Z,27.679999999999996
2023-02-17T10:08:32.048Z,25.959999999999997
2023-02-17T10:13:30.288Z,22.080000000000002
2023-02-17T10:18:31.584Z,21.000000000000004
2023-02-17T10:23:31.776Z,16.619999999999997
2023-02-17T10:28:41.047Z,23.64
2023-02-17T10:33:47.240Z,34.739999999999995
2023-02-17T10:38:50.513Z,24.4
2023-02-17T10:43:51.759Z,22.880000000000003
2023-02-17T10:48:50.002Z,24.78
2023-02-17T10:53:48.249Z,20.759999999999998
2023-02-17T10:58:51.467Z,22.139999999999997
2023-02-17T11:03:55.762Z,19.86
2023-02-17T11:08:59.995Z,18.7
2023-02-17T11:14:03.233Z,20.24
2023-02-17T11:19:00.433Z,22.48
2023-02-17T11:23:58.695Z,18.020000000000003
2023-02-17T11:29:01.938Z,18.7
2023-02-17T11:38:56.546Z,18.5
2023-02-17T11:43:53.819Z,17.3
2023-02-17T11:49:07.023Z,16.64
2023-02-17T11:54:15.259Z,21.32
2023-02-17T11:59:26.482Z,16.2
2023-02-17T12:04:30.690Z,17.72
2023-02-17T12:09:39.916Z,17.46
2023-02-17T12:14:52.297Z,18.7
2023-02-17T12:20:02.435Z,16.66
2023-02-17T12:25:11.584Z,17.759999999999998
2023-02-17T12:30:22.995Z,16.240000000000002
2023-02-17T12:35:23.077Z,14.080000000000002
2023-02-17T12:40:30.323Z,14.74
2023-02-17T12:45:35.565Z,10.459999999999999
2023-02-17T12:50:36.773Z,13.720000000000002
2023-02-17T12:55:38.042Z,14.76
2023-02-17T13:00:42.301Z,12.48
2023-02-17T13:05:46.552Z,11.719999999999999
2023-02-17T13:10:56.788Z,14.52
2023-02-17T13:26:23.472Z,14.5
2023-02-17T13:31:20.895Z,14.180000000000001
2023-02-17T13:36:19.949Z,13.020000000000001
2023-02-17T13:41:17.175Z,14.419999999999998
2023-02-17T13:46:19.497Z,13.76
2023-02-17T13:51:21.678Z,14.64
2023-02-17T13:56:24.967Z,15.020000000000001
2023-02-17T14:01:24.308Z,16.18
2023-02-17T14:06:24.431Z,12.179999999999998
2023-02-17T14:11:21.701Z,16.919999999999998
2023-02-17T14:16:26.936Z,14.219999999999999
2023-02-17T14:21:29.180Z,15
2023-02-17T14:26:28.423Z,10.74
2023-02-17T14:31:24.816Z,11.14
2023-02-17T14:36:26.990Z,13
2023-02-17T14:41:23.163Z,16.24
2023-02-17T14:46:19.538Z,18.22
2023-02-17T14:51:16.740Z,14.220000000000002
2023-02-17T14:56:18.949Z,12.9
2023-02-17T15:01:16.294Z,16.119999999999997
2023-02-17T15:06:14.484Z,15.48
2023-02-17T15:11:14.754Z,38.239999999999995
2023-02-17T15:16:11.185Z,42.22
2023-02-17T15:21:13.240Z,43.28
2023-02-17T15:26:10.497Z,46.18
2023-02-17T15:31:06.790Z,34.1
2023-02-17T15:36:03.009Z,26.2
2023-02-17T15:40:59.278Z,29.439999999999998
2023-02-17T15:45:56.534Z,25.22
2023-02-17T15:50:53.777Z,29.020000000000003
2023-02-17T15:55:50.054Z,25.32
2023-02-17T16:00:49.309Z,28.68
2023-02-17T16:05:46.554Z,19.06
2023-02-17T16:10:43.784Z,20.46
2023-02-17T16:15:44.050Z,20.9
2023-02-17T16:20:46.282Z,25.419999999999998
2023-02-17T16:25:43.564Z,31.220000000000006
2023-02-17T16:30:47.788Z,53.82000000000001
2023-02-17T16:35:46.102Z,87.83999999999999
2023-02-17T16:40:46.294Z,57.3
2023-02-17T16:45:48.584Z,26.98
2023-02-17T16:50:49.805Z,32.480000000000004
2023-02-17T16:55:47.080Z,29.779999999999994
2023-02-17T17:00:45.320Z,31.660000000000004
2023-02-17T17:05:41.541Z,42.86
2023-02-17T17:10:38.821Z,47.36
2023-02-17T17:15:35.055Z,45.059999999999995
2023-02-17T17:20:32.362Z,45.14
2023-02-17T17:25:28.593Z,51.28000000000001
2023-02-17T17:30:24.970Z,53.38000000000001
2023-02-17T17:35:30.100Z,45.04
2023-02-17T17:40:31.357Z,49.72
2023-02-17T17:45:27.606Z,49.260000000000005
2023-02-17T17:50:23.838Z,29.3
2023-02-17T17:55:25.133Z,26
2023-02-17T18:00:25.345Z,26.859999999999996
2023-02-17T18:05:26.594Z,29.46
2023-02-17T18:10:31.894Z,22.86
2023-02-17T18:15:33.132Z,23.640000000000004
2023-02-17T18:25:42.610Z,25.280000000000005
2023-02-17T18:30:44.930Z,27.360000000000003
2023-02-17T18:35:46.042Z,28.860000000000003
2023-02-17T18:40:56.291Z,26.68
2023-02-17T18:46:02.574Z,27.98
2023-02-17T18:51:03.147Z,50.559999999999995
2023-02-17T18:56:11.976Z,53.620000000000005
2023-02-17T19:01:16.549Z,56.1
2023-02-17T19:06:24.528Z,41.18
2023-02-17T19:11:28.028Z,28.6
2023-02-17T19:16:24.976Z,33.5
2023-02-17T19:21:30.230Z,29.52
2023-02-17T19:31:38.848Z,37.260000000000005
2023-02-17T19:36:38.950Z,37.18
2023-02-17T19:41:45.604Z,32.67999999999999
2023-02-17T19:46:48.474Z,27.3
2023-02-17T19:51:48.672Z,28.72
2023-02-17T19:56:55.699Z,31.979999999999997
2023-02-17T20:01:59.599Z,37.44
2023-02-17T20:07:02.398Z,27.24
2023-02-17T20:12:03.610Z,40.02
2023-02-17T20:17:04.857Z,31.9
2023-02-17T20:22:03.136Z,26.419999999999998
2023-02-17T20:32:14.101Z,23.299999999999997
2023-02-17T20:37:15.867Z,26.759999999999998
2023-02-17T20:42:20.069Z,26.22
2023-02-17T20:47:20.309Z,25.3
2023-02-17T20:52:25.763Z,22.5
2023-02-17T20:57:27.798Z,22.560000000000002
2023-02-17T21:02:24.065Z,20.16
2023-02-17T21:07:25.777Z,22.740000000000002
2023-02-17T21:12:29.562Z,18.82
2023-02-17T21:17:30.231Z,17.2
2023-02-17T21:22:31.098Z,15.74
2023-02-17T21:27:32.299Z,18.54
2023-02-17T21:32:32.972Z,16.119999999999997
2023-02-17T21:37:36.814Z,17.279999999999998
2023-02-17T21:42:38.057Z,14.720000000000002
2023-02-17T21:47:38.290Z,13.719999999999999
2023-02-17T21:52:38.529Z,13.34
2023-02-17T21:57:38.802Z,14.2
2023-02-17T22:02:39.089Z,12.9
2023-02-17T22:07:39.267Z,14.020000000000001
2023-02-17T22:12:39.528Z,13.66
2023-02-17T22:17:39.791Z,17.54
2023-02-17T22:22:40.095Z,13.959999999999999
2023-02-17T22:27:40.281Z,12.120000000000001
2023-02-17T22:32:40.537Z,13.6
2023-02-17T22:37:40.770Z,13.040000000000001
2023-02-17T22:42:41.051Z,10.9
2023-02-17T22:47:41.330Z,10.66
2023-02-17T22:52:41.532Z,11.459999999999999
2023-02-17T22:57:41.781Z,9.8
2023-02-17T23:02:42.052Z,9.44
2023-02-17T23:07:42.277Z,11.14
2023-02-17T23:12:42.544Z,11.58
2023-02-17T23:22:52.998Z,12.98
2023-02-17T23:27:53.277Z,10.839999999999998
2023-02-17T23:32:49.521Z,10.360000000000001
2023-02-17T23:37:45.789Z,10.48
2023-02-17T23:42:41.023Z,7.42
2023-02-17T23:47:37.315Z,8.440000000000001
2023-02-17T23:52:33.605Z,7.7
2023-02-17T23:57:29.867Z,7.12
